Bound Brook, New Jersey
Current Conditions -  °F | °C
As of 1:53 AM on Friday 19 Dec 2014 (Local Time) from KSMQ Reporting Station
Overcast Overcast  
Wind Chill: 32°   Ceiling: 4000
Heat Index: 38°   Visibility: 10mi
Dew Point: 23°   Wind: 8mph
Humidity: 55%   Direction: 320°NW
Pressure: 29.98"   Gusts: NA
Location:  40.56°N, 74.53°W
Report Text: KSMQ 190653Z AUTO 32007KT 10SM OVC040 03/M05 A2998 RMK AO2 SLP152 T00331050
Loading
Personal Weather Stations






























Interactive Weather Map New forecast layout! Learn more

10-Day Weather Forecast

Advertisements
Track Severe Weather on mobile